createdAt,value
2019-03-08T08:12:59.021Z,118.12
2019-03-08T08:13:59.192Z,168.75
2019-03-08T08:14:59.331Z,236.25
2019-03-08T08:15:59.602Z,343.12
2019-03-08T08:16:59.759Z,416.25
2019-03-08T08:18:01.056Z,489.38
2019-03-08T08:19:01.303Z,388.12
2019-03-08T08:20:01.414Z,410.62
2019-03-08T08:21:01.665Z,388.12
2019-03-08T08:22:01.803Z,360.00
2019-03-08T08:23:01.959Z,579.38
2019-03-08T08:24:02.085Z,731.25
2019-03-08T08:25:02.212Z,579.38
2019-03-08T08:26:03.341Z,450.00
2019-03-08T08:27:02.609Z,343.12
2019-03-08T08:28:02.724Z,348.75
2019-03-08T08:29:02.899Z,348.75
2019-03-08T08:30:03.038Z,405.00
2019-03-08T08:31:03.209Z,376.88
2019-03-08T08:32:03.381Z,281.25
2019-03-08T08:33:03.672Z,292.50
2019-03-08T08:34:03.766Z,348.75
2019-03-08T08:35:03.961Z,275.62
2019-03-08T08:36:04.114Z,219.38
2019-03-08T08:37:04.309Z,241.88
2019-03-08T08:38:04.510Z,309.38
2019-03-08T08:39:04.687Z,348.75
2019-03-08T08:40:04.865Z,489.38
2019-03-08T08:41:05.014Z,202.50
2019-03-08T08:42:05.201Z,151.88
2019-03-08T08:43:05.401Z,101.25
2019-03-08T08:44:05.567Z,95.62
2019-03-08T08:45:05.761Z,129.38
2019-03-08T08:46:05.923Z,129.38
2019-03-08T08:47:06.106Z,151.88
2019-03-08T08:48:06.265Z,253.12
2019-03-08T08:49:06.427Z,270.00
2019-03-08T08:50:06.569Z,236.25
2019-03-08T08:51:06.694Z,258.75
2019-03-08T08:52:06.856Z,309.38
2019-03-08T08:53:07.008Z,326.25
2019-03-08T08:54:07.176Z,348.75
2019-03-08T08:55:07.349Z,523.12
2019-03-08T08:56:07.448Z,911.25
2019-03-08T08:57:07.747Z,579.38
2019-03-08T08:58:07.877Z,618.75
2019-03-08T08:59:08.136Z,928.12
2019-03-08T09:00:08.305Z,1220.62
2019-03-08T09:01:08.474Z,1141.88
2019-03-08T09:02:08.714Z,765.00
2019-03-08T09:03:08.995Z,630.00
2019-03-08T09:04:09.103Z,343.12
2019-03-08T09:05:09.243Z,270.00
2019-03-08T09:06:09.436Z,275.62
2019-03-08T09:07:09.548Z,365.62
2019-03-08T09:08:09.695Z,343.12
2019-03-08T09:09:09.879Z,450.00
2019-03-08T09:10:09.989Z,2244.38
2019-03-08T09:11:10.180Z,348.75
2019-03-08T09:12:10.316Z,298.12
2019-03-08T09:13:10.536Z,421.88
2019-03-08T09:14:10.699Z,500.62
2019-03-08T09:15:10.870Z,1771.88
2019-03-08T09:16:11.035Z,967.50
2019-03-08T09:17:11.293Z,2295.00
2019-03-08T09:18:11.463Z,815.62
2019-03-08T09:19:11.629Z,517.50
2019-03-08T09:20:11.812Z,511.88
2019-03-08T09:21:11.994Z,545.62
2019-03-08T09:22:12.211Z,945.00
2019-03-08T09:23:12.366Z,3397.50
2019-03-08T09:24:12.556Z,804.38
2019-03-08T09:25:12.714Z,528.75
2019-03-08T09:26:12.869Z,303.75
2019-03-08T09:27:13.129Z,500.62
2019-03-08T09:28:13.259Z,3892.50
2019-03-08T09:29:13.439Z,461.25
2019-03-08T09:30:13.619Z,703.12
2019-03-08T09:31:13.758Z,2323.12
2019-03-08T09:32:13.957Z,393.75
2019-03-08T09:33:14.162Z,2868.75
2019-03-08T09:34:14.312Z,2806.88
2019-03-08T09:35:14.480Z,320.62
2019-03-08T09:36:14.664Z,388.12
2019-03-08T09:37:14.834Z,455.62
2019-03-08T09:38:15.005Z,450.00
2019-03-08T09:39:15.186Z,264.38
2019-03-08T09:40:15.361Z,123.75
2019-03-08T09:41:15.481Z,101.25
2019-03-08T09:42:15.657Z,95.62
2019-03-08T09:43:15.836Z,90.00
2019-03-08T09:44:16.003Z,90.00
2019-03-08T09:45:16.160Z,101.25
2019-03-08T09:46:17.325Z,118.12
2019-03-08T09:47:16.460Z,151.88
2019-03-08T09:48:16.637Z,286.88
2019-03-08T09:49:16.787Z,528.75
2019-03-08T09:50:16.936Z,3825.00
2019-03-08T09:51:17.101Z,675.00
2019-03-08T09:52:17.263Z,416.25
2019-03-08T09:53:17.470Z,337.50
2019-03-08T09:54:18.356Z,281.25
2019-03-08T09:55:18.794Z,241.88
2019-03-08T09:56:17.960Z,219.38
2019-03-08T09:57:18.123Z,247.50
2019-03-08T09:58:18.315Z,343.12
2019-03-08T09:59:18.465Z,1715.62
2019-03-08T10:00:18.616Z,343.12
2019-03-08T10:01:18.808Z,258.75
2019-03-08T10:02:19.001Z,225.00
2019-03-08T10:03:19.206Z,208.12
2019-03-08T10:04:19.370Z,180.00
2019-03-08T10:05:19.552Z,140.62
2019-03-08T10:06:19.705Z,118.12
2019-03-08T10:07:19.881Z,118.12
2019-03-08T10:08:20.021Z,135.00
2019-03-08T10:09:20.160Z,140.62
2019-03-08T10:10:20.329Z,151.88
2019-03-08T10:11:20.496Z,157.50
2019-03-08T10:12:20.659Z,157.50
2019-03-08T10:13:20.804Z,202.50
2019-03-08T10:14:21.049Z,270.00
2019-03-08T10:15:21.228Z,343.12
2019-03-08T10:16:21.420Z,725.62
2019-03-08T10:17:21.598Z,3178.12
2019-03-08T10:18:21.768Z,635.62
2019-03-08T10:19:21.939Z,2210.62
2019-03-08T10:20:22.111Z,2053.12
2019-03-08T10:21:22.326Z,3453.75
2019-03-08T10:22:22.410Z,2171.25
2019-03-08T10:23:22.617Z,4134.38
2019-03-08T10:24:22.779Z,1080.00
2019-03-08T10:25:22.955Z,708.75
2019-03-08T10:26:23.173Z,433.12
2019-03-08T10:27:23.375Z,354.38
2019-03-08T10:28:23.552Z,410.62
2019-03-08T10:29:23.716Z,472.50
2019-03-08T10:30:23.895Z,585.00
2019-03-08T10:31:24.095Z,905.62
2019-03-08T10:32:24.273Z,573.75
2019-03-08T10:33:24.440Z,298.12
2019-03-08T10:34:24.649Z,315.00
2019-03-08T10:35:24.824Z,427.50
2019-03-08T10:36:25.064Z,399.38
2019-03-08T10:37:25.247Z,360.00
2019-03-08T10:38:25.474Z,438.75
2019-03-08T10:39:25.721Z,517.50
2019-03-08T10:40:25.889Z,675.00
2019-03-08T10:41:26.175Z,4398.75
2019-03-08T10:42:26.214Z,4516.88
2019-03-08T10:43:26.402Z,928.12
2019-03-08T10:44:27.596Z,933.75
2019-03-08T10:45:26.725Z,3150.00
2019-03-08T10:46:26.932Z,506.25
2019-03-08T10:47:27.094Z,371.25
2019-03-08T10:48:27.294Z,286.88
2019-03-08T10:49:27.524Z,202.50
2019-03-08T10:50:27.730Z,151.88
2019-03-08T10:51:27.898Z,157.50
2019-03-08T10:52:29.123Z,196.88
2019-03-08T10:53:28.280Z,236.25
2019-03-08T10:54:28.471Z,225.00
2019-03-08T10:55:28.672Z,219.38
2019-03-08T10:56:28.883Z,213.75
2019-03-08T10:57:30.134Z,230.62
2019-03-08T10:58:29.311Z,253.12
2019-03-08T10:59:31.356Z,281.25
2019-03-08T11:00:29.629Z,281.25
2019-03-08T11:01:29.827Z,264.38
2019-03-08T11:02:30.034Z,236.25
2019-03-08T11:03:30.163Z,191.25
2019-03-08T11:04:30.356Z,168.75
2019-03-08T11:05:30.543Z,180.00
2019-03-08T11:06:30.727Z,208.12
2019-03-08T11:07:30.923Z,202.50
2019-03-08T11:08:31.116Z,185.62
2019-03-08T11:09:31.341Z,180.00
2019-03-08T11:10:31.450Z,174.38
2019-03-08T11:11:31.677Z,168.75
2019-03-08T11:12:31.878Z,157.50
2019-03-08T11:13:32.134Z,157.50
2019-03-08T11:14:32.245Z,157.50
2019-03-08T11:15:32.451Z,146.25
2019-03-08T11:16:32.671Z,135.00
2019-03-08T11:17:32.877Z,135.00
2019-03-08T11:18:33.099Z,140.62
2019-03-08T11:19:33.286Z,140.62
2019-03-08T11:20:33.481Z,140.62
2019-03-08T11:21:33.651Z,151.88
2019-03-08T11:22:34.886Z,168.75
2019-03-08T11:23:34.080Z,191.25
2019-03-08T11:24:34.239Z,213.75
2019-03-08T11:25:35.265Z,202.50
2019-03-08T11:26:35.667Z,219.38
2019-03-08T11:27:34.818Z,247.50
2019-03-08T11:28:35.049Z,264.38
2019-03-08T11:29:35.257Z,275.62
2019-03-08T11:30:35.449Z,292.50
2019-03-08T11:31:35.645Z,315.00
2019-03-08T11:32:36.870Z,376.88
2019-03-08T11:33:36.027Z,663.75
2019-03-08T11:34:36.279Z,630.00
2019-03-08T11:35:36.680Z,680.62
2019-03-08T11:36:37.618Z,1406.25
2019-03-08T11:37:36.761Z,382.50
2019-03-08T11:38:36.947Z,247.50
2019-03-08T11:39:37.134Z,191.25
2019-03-08T11:40:37.321Z,146.25
2019-03-08T11:41:37.537Z,112.50
2019-03-08T11:42:37.706Z,101.25
2019-03-08T11:43:37.898Z,95.62
2019-03-08T11:44:38.085Z,84.38
2019-03-08T11:45:38.312Z,90.00
2019-03-08T11:46:38.597Z,90.00
2019-03-08T11:47:38.631Z,95.62
2019-03-08T11:48:38.833Z,118.12
2019-03-08T11:49:39.082Z,129.38
2019-03-08T11:50:39.212Z,163.12
2019-03-08T11:51:39.293Z,309.38
2019-03-08T11:52:39.523Z,472.50
2019-03-08T11:53:39.729Z,489.38
2019-03-08T11:54:41.079Z,461.25
2019-03-08T11:55:41.062Z,455.62
2019-03-08T11:56:40.194Z,466.88
2019-03-08T11:57:40.350Z,838.12
2019-03-08T11:58:40.525Z,1192.50
2019-03-08T11:59:40.730Z,714.38
2019-03-08T12:00:40.884Z,478.12
2019-03-08T12:01:41.032Z,393.75
2019-03-08T12:02:41.215Z,393.75
2019-03-08T12:03:41.388Z,410.62
2019-03-08T12:04:41.609Z,438.75
2019-03-08T12:05:41.786Z,393.75
2019-03-08T12:06:41.947Z,331.88
2019-03-08T12:07:42.122Z,326.25
2019-03-08T12:08:42.283Z,331.88
2019-03-08T12:09:42.552Z,371.25
2019-03-08T12:10:42.594Z,652.50
2019-03-08T12:11:42.775Z,838.12
2019-03-08T12:12:43.299Z,922.50
2019-03-08T12:13:43.076Z,1063.12
2019-03-08T12:14:43.278Z,973.12
2019-03-08T12:15:43.463Z,1321.88
2019-03-08T12:16:43.638Z,5130.00
2019-03-08T12:17:43.769Z,3909.38
2019-03-08T12:18:43.943Z,4860.00
2019-03-08T12:19:44.124Z,4786.88
2019-03-08T12:20:44.353Z,4651.88
2019-03-08T12:21:44.543Z,2261.25
2019-03-08T12:22:44.718Z,4415.62
2019-03-08T12:23:44.909Z,4736.25
2019-03-08T12:24:45.117Z,1136.25
2019-03-08T12:25:45.337Z,4629.38
2019-03-08T12:26:45.541Z,1395.00
2019-03-08T12:27:45.720Z,1473.75
2019-03-08T12:28:45.919Z,4078.12
2019-03-08T12:29:46.109Z,4522.50
2019-03-08T12:30:46.326Z,4381.88
2019-03-08T12:31:46.482Z,4269.38
2019-03-08T12:32:46.683Z,4083.75
2019-03-08T12:33:46.863Z,1479.38
2019-03-08T12:34:47.029Z,4702.50
2019-03-08T12:35:47.245Z,4618.12
2019-03-08T12:36:47.495Z,4944.38
2019-03-08T12:37:47.670Z,3718.12
2019-03-08T12:38:47.880Z,4646.25
2019-03-08T12:39:48.114Z,4421.25
2019-03-08T12:40:48.346Z,4297.50
2019-03-08T12:41:48.520Z,4320.00
2019-03-08T12:42:48.702Z,4325.62
2019-03-08T12:43:48.895Z,4432.50
2019-03-08T12:44:49.118Z,4438.12
2019-03-08T12:45:49.346Z,4241.25
2019-03-08T12:46:49.559Z,4246.88
2019-03-08T12:47:49.759Z,4235.62
2019-03-08T12:48:50.311Z,4140.00
2019-03-08T12:49:51.149Z,4156.88
2019-03-08T12:50:50.334Z,4241.25
2019-03-08T12:51:50.555Z,4033.12
2019-03-08T12:52:50.722Z,4021.88
2019-03-08T12:53:50.907Z,905.62
2019-03-08T12:54:51.140Z,691.88
2019-03-08T12:55:51.300Z,1473.75
2019-03-08T12:56:51.500Z,4303.12
2019-03-08T12:57:51.690Z,866.25
2019-03-08T12:58:51.870Z,3408.75
2019-03-08T12:59:52.048Z,787.50
2019-03-08T13:00:52.226Z,759.38
2019-03-08T13:01:52.433Z,1805.62
2019-03-08T13:02:52.657Z,1698.75
2019-03-08T13:03:52.859Z,1732.50
2019-03-08T13:04:53.069Z,1738.12
2019-03-08T13:05:53.321Z,804.38
2019-03-08T13:06:53.529Z,776.25
2019-03-08T13:07:53.659Z,961.88
2019-03-08T13:08:53.842Z,1648.12
2019-03-08T13:09:54.066Z,1631.25
2019-03-08T13:10:54.245Z,1620.00
2019-03-08T13:11:54.431Z,1608.75
2019-03-08T13:12:54.618Z,1603.12
2019-03-08T13:13:54.814Z,1597.50
2019-03-08T13:14:54.981Z,1620.00
2019-03-08T13:15:55.152Z,1665.00
2019-03-08T13:16:55.337Z,1839.38
2019-03-08T13:17:55.556Z,2233.12
2019-03-08T13:18:55.778Z,2716.88
2019-03-08T13:19:55.973Z,2930.62
2019-03-08T13:20:56.174Z,2885.62
2019-03-08T13:21:56.382Z,2908.12
2019-03-08T13:22:56.472Z,2773.12
2019-03-08T13:23:56.656Z,2480.62
2019-03-08T13:24:56.817Z,2401.88
2019-03-08T13:25:57.007Z,2413.12
2019-03-08T13:26:57.168Z,2385.00
2019-03-08T13:27:57.313Z,1350.00
2019-03-08T13:28:57.496Z,1800.00
2019-03-08T13:29:57.725Z,680.62
2019-03-08T13:30:57.884Z,1406.25
2019-03-08T13:31:58.067Z,697.50
2019-03-08T13:32:58.243Z,506.25
2019-03-08T13:33:58.381Z,478.12
2019-03-08T13:34:58.600Z,438.75
2019-03-08T13:35:58.815Z,393.75
2019-03-08T13:36:58.993Z,376.88
2019-03-08T13:37:59.186Z,354.38
2019-03-08T13:38:59.365Z,320.62
2019-03-08T13:39:59.540Z,292.50
2019-03-08T13:40:59.839Z,264.38
2019-03-08T13:42:00.006Z,247.50
2019-03-08T13:43:00.203Z,230.62
2019-03-08T13:44:00.735Z,213.75
2019-03-08T13:45:01.616Z,196.88
2019-03-08T13:46:00.793Z,180.00
2019-03-08T13:47:01.011Z,163.12
2019-03-08T13:48:01.211Z,146.25
2019-03-08T13:49:01.430Z,135.00
2019-03-08T13:50:01.635Z,129.38
2019-03-08T13:51:01.865Z,129.38
2019-03-08T13:52:02.112Z,129.38
2019-03-08T13:53:02.193Z,140.62
2019-03-08T13:54:02.386Z,140.62
2019-03-08T13:55:02.573Z,140.62
2019-03-08T13:56:02.768Z,135.00
2019-03-08T13:57:02.984Z,135.00
2019-03-08T13:58:03.193Z,140.62
2019-03-08T13:59:03.373Z,157.50
2019-03-08T14:00:03.560Z,185.62
2019-03-08T14:01:03.775Z,225.00
2019-03-08T14:02:03.962Z,253.12
2019-03-08T14:03:04.183Z,275.62
2019-03-08T14:04:04.376Z,275.62
2019-03-08T14:05:04.534Z,303.75
2019-03-08T14:06:04.660Z,365.62
2019-03-08T14:07:05.810Z,1276.88
2019-03-08T14:08:05.024Z,1445.62
2019-03-08T14:09:05.196Z,1473.75
2019-03-08T14:10:05.353Z,1440.00
2019-03-08T14:11:05.537Z,1372.50
2019-03-08T14:12:05.689Z,1321.88
2019-03-08T14:13:05.901Z,393.75
2019-03-08T14:14:06.090Z,360.00
2019-03-08T14:15:06.236Z,1186.88
2019-03-08T14:16:06.427Z,500.62
2019-03-08T14:17:06.596Z,753.75
2019-03-08T14:18:06.830Z,1170.00
2019-03-08T14:19:07.036Z,1254.38
2019-03-08T14:20:07.264Z,978.75
2019-03-08T14:21:07.439Z,1203.75
2019-03-08T14:22:07.599Z,523.12
2019-03-08T14:23:07.819Z,978.75
2019-03-08T14:24:08.046Z,1153.12
2019-03-08T14:25:08.254Z,1113.75
2019-03-08T14:26:08.495Z,928.12
2019-03-08T14:27:08.575Z,1029.38
2019-03-08T14:28:08.810Z,433.12
2019-03-08T14:29:09.031Z,354.38
2019-03-08T14:30:09.222Z,331.88
2019-03-08T14:31:12.478Z,315.00
2019-03-08T14:32:09.658Z,320.62
2019-03-08T14:33:09.838Z,303.75
2019-03-08T14:34:10.802Z,270.00
2019-03-08T14:35:12.230Z,241.88
2019-03-08T14:36:10.376Z,230.62
2019-03-08T14:37:10.504Z,230.62
2019-03-08T14:38:10.715Z,225.00
2019-03-08T14:39:10.915Z,225.00
2019-03-08T14:40:11.154Z,225.00
2019-03-08T14:41:11.349Z,230.62
2019-03-08T14:42:11.602Z,225.00
2019-03-08T14:43:13.136Z,213.75
2019-03-08T14:44:12.991Z,202.50
2019-03-08T14:45:12.146Z,196.88
2019-03-08T14:46:12.341Z,196.88
2019-03-08T14:47:12.502Z,196.88
2019-03-08T14:48:12.658Z,196.88
2019-03-08T14:49:12.852Z,213.75
2019-03-08T14:50:13.022Z,230.62
2019-03-08T14:51:13.849Z,292.50
2019-03-08T14:52:13.430Z,292.50
2019-03-08T14:53:13.611Z,320.62
2019-03-08T14:54:13.761Z,343.12
2019-03-08T14:55:13.929Z,371.25
2019-03-08T14:56:14.115Z,365.62
2019-03-08T14:57:26.390Z,326.25
2019-03-08T14:58:16.579Z,320.62
2019-03-08T14:59:15.349Z,303.75
2019-03-08T15:00:15.866Z,303.75
2019-03-08T15:01:15.020Z,315.00
2019-03-08T15:02:15.217Z,326.25
2019-03-08T15:03:15.379Z,714.38
2019-03-08T15:04:15.542Z,483.75
2019-03-08T15:05:19.209Z,326.25
2019-03-08T15:06:15.878Z,298.12
2019-03-08T15:07:16.045Z,264.38
2019-03-08T15:08:17.709Z,236.25
2019-03-08T15:09:17.340Z,202.50
2019-03-08T15:10:16.530Z,185.62
2019-03-08T15:11:16.716Z,168.75
2019-03-08T15:12:16.954Z,151.88
2019-03-08T15:13:20.198Z,129.38
2019-03-08T15:14:18.191Z,118.12
2019-03-08T15:15:17.347Z,118.12
2019-03-08T15:16:17.539Z,112.50
2019-03-08T15:17:17.754Z,163.12
2019-03-08T15:18:17.907Z,298.12
2019-03-08T15:19:18.072Z,253.12
2019-03-08T15:20:18.268Z,450.00
2019-03-08T15:21:18.484Z,444.38
2019-03-08T15:22:18.636Z,298.12
2019-03-08T15:23:18.806Z,292.50
2019-03-08T15:24:18.979Z,292.50
2019-03-08T15:25:20.162Z,281.25
2019-03-08T15:26:19.357Z,253.12
2019-03-08T15:27:19.477Z,225.00
2019-03-08T15:28:19.642Z,213.75
2019-03-08T15:29:19.831Z,196.88
2019-03-08T15:30:20.018Z,191.25
2019-03-08T15:31:20.224Z,185.62
2019-03-08T15:32:20.399Z,180.00
2019-03-08T15:33:20.564Z,174.38
2019-03-08T15:34:21.428Z,185.62
2019-03-08T15:35:21.959Z,213.75
2019-03-08T15:36:21.117Z,202.50
2019-03-08T15:37:21.304Z,208.12
2019-03-08T15:38:21.505Z,213.75
2019-03-08T15:39:21.721Z,219.38
2019-03-08T15:40:21.899Z,230.62
2019-03-08T15:41:24.984Z,230.62
2019-03-08T15:42:22.325Z,213.75
2019-03-08T15:43:22.505Z,185.62
2019-03-08T15:44:24.463Z,174.38
2019-03-08T15:45:24.865Z,264.38
2019-03-08T15:46:23.450Z,208.12
2019-03-08T15:47:23.987Z,365.62
2019-03-08T15:48:24.450Z,376.88
2019-03-08T15:49:26.666Z,382.50
2019-03-08T15:50:24.634Z,331.88
2019-03-08T15:51:25.267Z,247.50
2019-03-08T15:52:24.938Z,196.88
2019-03-08T15:53:24.130Z,168.75
2019-03-08T15:54:24.285Z,146.25
2019-03-08T15:55:24.424Z,129.38
2019-03-08T15:56:24.601Z,123.75
2019-03-08T15:57:24.812Z,118.12
2019-03-08T15:58:25.024Z,112.50
2019-03-08T15:59:25.234Z,106.88
2019-03-08T16:00:25.412Z,101.25
2019-03-08T16:01:25.610Z,95.62
2019-03-08T16:02:25.781Z,90.00
2019-03-08T16:03:25.947Z,90.00
2019-03-08T16:04:26.147Z,90.00
2019-03-08T16:05:28.220Z,84.38
2019-03-08T16:06:27.453Z,84.38
2019-03-08T16:07:27.275Z,78.75
2019-03-08T16:08:27.724Z,78.75
2019-03-08T16:09:26.958Z,78.75
2019-03-08T16:10:28.098Z,78.75
2019-03-08T16:11:27.221Z,73.12
2019-03-08T16:12:27.378Z,73.12
2019-03-08T16:13:27.502Z,73.12
2019-03-08T16:14:27.786Z,67.50
2019-03-08T16:15:27.914Z,67.50
2019-03-08T16:16:28.068Z,67.50
2019-03-08T16:17:28.216Z,61.88
2019-03-08T16:18:28.466Z,61.88
2019-03-08T16:19:28.633Z,61.88
2019-03-08T16:20:28.767Z,61.88
2019-03-08T16:21:29.027Z,67.50
2019-03-08T16:22:30.162Z,78.75
2019-03-08T16:23:29.314Z,84.38
2019-03-08T16:24:31.218Z,84.38
2019-03-08T16:25:30.619Z,95.62
2019-03-08T16:26:29.878Z,95.62
2019-03-08T16:27:30.008Z,95.62
2019-03-08T16:28:30.128Z,95.62
2019-03-08T16:29:30.254Z,90.00
2019-03-08T16:30:30.481Z,90.00
2019-03-08T16:31:30.683Z,84.38
2019-03-08T16:32:30.884Z,78.75
2019-03-08T16:33:31.014Z,78.75
2019-03-08T16:34:31.147Z,78.75
2019-03-08T16:35:32.067Z,78.75
2019-03-08T16:36:31.491Z,78.75
2019-03-08T16:37:31.595Z,78.75
2019-03-08T16:38:32.762Z,78.75
2019-03-08T16:39:31.925Z,78.75
2019-03-08T16:40:32.106Z,78.75
2019-03-08T16:41:32.263Z,78.75
2019-03-08T16:42:32.426Z,78.75
2019-03-08T16:43:32.588Z,78.75
2019-03-08T16:44:33.756Z,73.12
2019-03-08T16:45:32.879Z,73.12
2019-03-08T16:46:33.032Z,73.12
2019-03-08T16:47:33.292Z,67.50
2019-03-08T16:48:33.451Z,67.50
2019-03-08T16:49:33.577Z,67.50
2019-03-08T16:50:33.702Z,61.88
2019-03-08T16:51:34.490Z,61.88
2019-03-08T16:52:35.163Z,56.25
2019-03-08T16:53:34.248Z,56.25
2019-03-08T16:54:34.486Z,50.62
2019-03-08T16:55:34.637Z,50.62
2019-03-08T16:56:34.759Z,45.00
2019-03-08T16:57:34.895Z,45.00
2019-03-08T16:58:35.017Z,39.38
2019-03-08T16:59:35.141Z,39.38
2019-03-08T17:00:35.416Z,33.75
2019-03-08T17:01:35.536Z,33.75
2019-03-08T17:02:35.667Z,28.12
2019-03-08T17:03:35.809Z,28.12
2019-03-08T17:04:35.940Z,22.50
2019-03-08T17:05:36.166Z,22.50
2019-03-08T17:06:36.352Z,22.50
2019-03-08T17:07:36.509Z,16.88
2019-03-08T17:08:36.633Z,16.88
2019-03-08T17:09:36.793Z,16.88
2019-03-08T17:10:36.986Z,16.88
2019-03-08T17:11:37.185Z,11.25
2019-03-08T17:12:37.329Z,11.25
2019-03-08T17:13:37.476Z,11.25
2019-03-08T17:14:37.609Z,11.25
2019-03-08T17:15:37.782Z,11.25
2019-03-08T17:16:37.982Z,5.62
2019-03-08T17:17:38.139Z,5.62
2019-03-08T17:18:38.309Z,5.62
2019-03-08T17:19:38.497Z,5.62
2019-03-08T17:20:38.662Z,5.62
2019-03-08T17:21:38.867Z,5.62
2019-03-08T17:22:40.564Z,5.62
2019-03-08T17:23:39.202Z,5.62
2019-03-08T17:24:39.385Z,0.00
2019-03-08T17:25:39.594Z,0.00
2019-03-08T17:26:39.769Z,0.00
2019-03-08T17:27:40.047Z,0.00
2019-03-08T17:28:41.107Z,0.00
2019-03-08T17:29:40.254Z,0.00
2019-03-08T17:30:40.446Z,0.00
2019-03-08T17:31:40.571Z,0.00
2019-03-08T17:32:40.733Z,0.00
2019-03-08T17:33:40.915Z,0.00
2019-03-08T17:34:41.090Z,0.00
2019-03-08T17:35:41.276Z,0.00
2019-03-08T17:36:41.470Z,0.00
2019-03-08T17:37:41.669Z,0.00
2019-03-08T17:38:41.889Z,0.00
2019-03-08T17:39:42.041Z,0.00
2019-03-08T17:40:42.279Z,0.00
2019-03-08T17:41:42.409Z,0.00
2019-03-08T17:42:42.577Z,0.00
2019-03-08T17:43:42.748Z,0.00
2019-03-08T17:44:42.900Z,0.00
2019-03-08T17:45:43.030Z,0.00
2019-03-08T17:46:43.207Z,0.00
2019-03-08T17:47:43.363Z,0.00
2019-03-08T17:48:43.573Z,0.00
2019-03-08T17:49:43.731Z,0.00
2019-03-08T17:50:43.911Z,0.00
2019-03-08T17:51:44.090Z,0.00
2019-03-08T17:52:44.245Z,0.00
2019-03-08T17:53:44.425Z,0.00
2019-03-08T17:54:44.626Z,0.00
2019-03-08T17:55:44.790Z,0.00
2019-03-08T17:56:44.941Z,0.00
2019-03-08T17:57:45.105Z,0.00
2019-03-08T17:58:45.289Z,0.00
2019-03-08T17:59:45.437Z,0.00
2019-03-08T18:00:45.609Z,0.00
2019-03-08T18:01:45.774Z,0.00
2019-03-08T18:02:45.963Z,0.00
2019-03-08T18:03:46.166Z,0.00
2019-03-08T18:04:46.339Z,0.00
2019-03-08T18:05:46.506Z,0.00
2019-03-08T18:06:46.728Z,0.00
2019-03-08T18:07:46.936Z,0.00
2019-03-08T18:08:47.137Z,0.00
2019-03-08T18:09:47.342Z,0.00
2019-03-08T18:10:47.531Z,0.00
2019-03-08T18:11:47.722Z,0.00
2019-03-08T18:12:47.879Z,0.00
2019-03-08T18:13:48.054Z,0.00
2019-03-08T18:14:48.263Z,0.00
2019-03-08T18:15:48.439Z,0.00
2019-03-08T18:16:48.617Z,0.00
2019-03-08T18:17:48.805Z,0.00
2019-03-08T18:18:48.993Z,0.00
2019-03-08T18:19:49.188Z,0.00
2019-03-08T18:20:49.362Z,0.00
2019-03-08T18:21:49.536Z,0.00
2019-03-08T18:22:49.718Z,0.00
2019-03-08T18:23:49.886Z,0.00
2019-03-08T18:24:50.130Z,0.00
2019-03-08T18:25:50.350Z,0.00
2019-03-08T18:26:50.560Z,0.00
2019-03-08T18:27:50.743Z,0.00
2019-03-08T18:28:50.903Z,0.00
2019-03-08T18:29:51.053Z,0.00
2019-03-08T18:30:51.278Z,0.00
2019-03-08T18:31:51.454Z,0.00
2019-03-08T18:32:51.607Z,0.00
2019-03-08T18:33:51.768Z,0.00
2019-03-08T18:34:51.935Z,0.00
2019-03-08T18:35:52.155Z,0.00
2019-03-08T18:36:52.238Z,0.00
2019-03-08T18:37:52.387Z,0.00
2019-03-08T18:38:52.570Z,0.00
2019-03-08T18:39:52.781Z,0.00
2019-03-08T18:40:52.917Z,0.00
2019-03-08T18:41:53.130Z,0.00
2019-03-08T18:42:53.277Z,0.00
2019-03-08T18:43:53.432Z,0.00
2019-03-08T18:44:53.595Z,0.00
2019-03-08T18:45:53.749Z,0.00
2019-03-08T18:46:53.950Z,0.00
2019-03-08T18:47:54.104Z,0.00
2019-03-08T18:48:54.291Z,0.00
2019-03-08T18:49:54.433Z,0.00
2019-03-08T18:50:54.623Z,0.00
2019-03-08T18:51:54.812Z,0.00
2019-03-08T18:52:54.976Z,0.00
2019-03-08T18:53:55.106Z,0.00
2019-03-08T18:54:55.271Z,0.00
2019-03-08T18:55:55.446Z,0.00
2019-03-08T18:56:55.628Z,0.00
2019-03-08T18:57:55.823Z,0.00
2019-03-08T18:58:55.978Z,0.00
2019-03-08T18:59:56.213Z,0.00
2019-03-08T19:00:56.388Z,0.00
2019-03-08T19:01:56.579Z,0.00
2019-03-08T19:02:56.771Z,0.00
2019-03-08T19:03:56.921Z,0.00
2019-03-08T19:04:57.104Z,0.00
2019-03-08T19:05:57.290Z,0.00
2019-03-08T19:06:57.480Z,0.00
2019-03-08T19:07:57.682Z,0.00
2019-03-08T19:08:57.799Z,0.00
2019-03-08T19:09:57.988Z,0.00
2019-03-08T19:10:58.158Z,0.00
2019-03-08T19:11:58.324Z,0.00
2019-03-08T19:12:58.523Z,0.00
2019-03-08T19:13:58.714Z,0.00
2019-03-08T19:14:59.890Z,0.00
2019-03-08T19:15:59.065Z,0.00
2019-03-08T19:16:59.248Z,0.00
2019-03-08T19:17:59.420Z,0.00
2019-03-08T19:18:59.615Z,0.00
2019-03-08T19:19:59.784Z,0.00
2019-03-08T19:20:59.956Z,0.00
2019-03-08T19:22:00.102Z,0.00
2019-03-08T19:23:00.361Z,0.00
2019-03-08T19:24:00.551Z,0.00
2019-03-08T19:25:00.709Z,0.00
2019-03-08T19:26:00.940Z,0.00
2019-03-08T19:27:01.135Z,0.00
2019-03-08T19:28:01.314Z,0.00
2019-03-08T19:29:01.491Z,0.00
2019-03-08T19:30:01.713Z,0.00
2019-03-08T19:31:01.871Z,0.00
2019-03-08T19:32:02.071Z,0.00
2019-03-08T19:33:02.276Z,0.00
2019-03-08T19:34:02.454Z,0.00
2019-03-08T19:35:02.727Z,0.00
2019-03-08T19:36:02.896Z,0.00
2019-03-08T19:37:03.045Z,0.00
2019-03-08T19:38:03.239Z,0.00
2019-03-08T19:39:03.412Z,0.00
2019-03-08T19:40:03.600Z,0.00
2019-03-08T19:41:03.799Z,0.00
2019-03-08T19:42:03.973Z,0.00
2019-03-08T19:43:04.154Z,0.00
2019-03-08T19:44:04.290Z,0.00
2019-03-08T19:45:04.448Z,0.00
2019-03-08T19:46:04.631Z,0.00
2019-03-08T19:47:05.155Z,0.00
2019-03-08T19:48:04.928Z,0.00
2019-03-08T19:49:05.106Z,0.00
2019-03-08T19:50:06.433Z,0.00
2019-03-08T19:51:05.481Z,0.00
2019-03-08T19:52:05.645Z,0.00
2019-03-08T19:53:05.897Z,0.00
2019-03-08T19:54:06.106Z,0.00
2019-03-08T19:55:06.300Z,0.00
2019-03-08T19:56:06.436Z,0.00
2019-03-08T19:57:06.611Z,0.00
2019-03-08T19:58:06.788Z,0.00
2019-03-08T19:59:07.961Z,0.00
2019-03-08T20:00:07.113Z,0.00
2019-03-08T20:01:07.290Z,0.00
2019-03-08T20:02:07.439Z,0.00
2019-03-08T20:03:07.630Z,0.00
2019-03-08T20:04:07.802Z,0.00
2019-03-08T20:05:07.957Z,0.00
2019-03-08T20:06:08.112Z,0.00
2019-03-08T20:07:08.269Z,0.00
2019-03-08T20:08:08.456Z,0.00
2019-03-08T20:09:08.582Z,0.00
2019-03-08T20:10:08.757Z,0.00
2019-03-08T20:11:08.898Z,0.00
2019-03-08T20:12:09.059Z,0.00
2019-03-08T20:13:09.243Z,0.00
2019-03-08T20:14:09.408Z,0.00
2019-03-08T20:15:09.559Z,0.00
2019-03-08T20:16:10.714Z,0.00
2019-03-08T20:17:09.878Z,0.00
2019-03-08T20:18:10.120Z,0.00
2019-03-08T20:19:10.205Z,0.00
2019-03-08T20:20:10.372Z,0.00
2019-03-08T20:21:10.558Z,0.00
2019-03-08T20:22:10.739Z,0.00
2019-03-08T20:23:11.046Z,0.00
2019-03-08T20:24:11.118Z,0.00
2019-03-08T20:25:11.296Z,0.00
2019-03-08T20:26:11.469Z,0.00
2019-03-08T20:27:11.649Z,0.00
2019-03-08T20:28:11.906Z,0.00
2019-03-08T20:29:12.073Z,0.00
2019-03-08T20:30:12.249Z,0.00
2019-03-08T20:31:12.409Z,0.00
2019-03-08T20:32:12.541Z,0.00
2019-03-08T20:33:12.742Z,0.00
2019-03-08T20:34:13.424Z,0.00
2019-03-08T20:35:14.153Z,0.00
2019-03-08T20:36:13.260Z,0.00
2019-03-08T20:37:13.419Z,0.00
2019-03-08T20:38:13.563Z,0.00
2019-03-08T20:39:15.807Z,0.00
2019-03-08T20:40:13.920Z,0.00
2019-03-08T20:41:14.079Z,0.00
2019-03-08T20:42:14.217Z,0.00
2019-03-08T20:43:14.369Z,0.00
2019-03-08T20:44:14.542Z,0.00
2019-03-08T20:45:14.743Z,0.00
2019-03-08T20:46:14.930Z,0.00
2019-03-08T20:47:15.137Z,0.00
2019-03-08T20:48:15.305Z,0.00
2019-03-08T20:49:15.526Z,0.00
2019-03-08T20:50:15.755Z,0.00
2019-03-08T20:51:15.949Z,0.00
2019-03-08T20:52:16.134Z,0.00
2019-03-08T20:53:16.300Z,0.00
2019-03-08T20:54:16.457Z,0.00
2019-03-08T20:55:16.626Z,0.00
2019-03-08T20:56:16.795Z,0.00